createdAt,value
2023-02-17T00:01:13.049Z,39.35
2023-02-17T00:03:40.399Z,38.03
2023-02-17T00:06:09.550Z,37.88
2023-02-17T00:08:37.325Z,35.80
2023-02-17T00:11:04.562Z,36.05
2023-02-17T00:13:31.712Z,35.03
2023-02-17T00:15:58.928Z,35.20
2023-02-17T00:18:26.037Z,33.80
2023-02-17T00:20:53.236Z,34.17
2023-02-17T00:23:20.434Z,34.15
2023-02-17T00:25:47.533Z,33.28
2023-02-17T00:28:14.689Z,33.08
2023-02-17T00:30:41.778Z,32.08
2023-02-17T00:33:08.931Z,33.67
2023-02-17T00:35:40.586Z,32.40
2023-02-17T00:38:08.996Z,35.85
2023-02-17T00:40:36.236Z,32.72
2023-02-17T00:43:03.390Z,33.85
2023-02-17T00:45:30.582Z,34.93
2023-02-17T00:47:57.715Z,32.85
2023-02-17T00:50:24.817Z,31.95
2023-02-17T00:52:52.010Z,32.67
2023-02-17T00:55:19.099Z,34.25
2023-02-17T00:57:46.253Z,33.63
2023-02-17T01:00:13.987Z,31.17
2023-02-17T01:02:41.175Z,31.55
2023-02-17T01:05:08.707Z,31.08
2023-02-17T01:07:37.336Z,30.80
2023-02-17T01:10:05.643Z,30.10
2023-02-17T01:12:33.237Z,29.42
2023-02-17T01:15:01.072Z,29.80
2023-02-17T01:17:28.259Z,29.30
2023-02-17T01:19:55.758Z,30.38
2023-02-17T01:22:22.950Z,29.63
2023-02-17T01:24:50.124Z,27.27
2023-02-17T01:27:17.229Z,27.73
2023-02-17T01:29:46.356Z,28.65
2023-02-17T01:32:13.708Z,30.10
2023-02-17T01:34:41.140Z,28.03
2023-02-17T01:37:08.343Z,27.90
2023-02-17T01:39:36.539Z,28.45
2023-02-17T01:42:03.870Z,27.48
2023-02-17T01:44:32.687Z,27.23
2023-02-17T01:47:00.247Z,29.17
2023-02-17T01:49:36.782Z,26.92
2023-02-17T01:52:25.372Z,26.52
2023-02-17T01:55:02.643Z,27.45
2023-02-17T01:57:35.229Z,27.27
2023-02-17T02:00:03.406Z,29.60
2023-02-17T02:02:43.700Z,32.45
2023-02-17T02:05:14.880Z,30.48
2023-02-17T02:07:44.760Z,30.40
2023-02-17T02:10:14.010Z,29.70
2023-02-17T02:12:42.772Z,30.10
2023-02-17T02:15:13.670Z,31.23
2023-02-17T02:18:19.262Z,31.05
2023-02-17T02:21:04.831Z,28.92
2023-02-17T02:23:47.282Z,31.10
2023-02-17T02:26:46.209Z,29.47
2023-02-17T02:29:36.679Z,29.98
2023-02-17T02:32:06.718Z,28.98
2023-02-17T02:34:45.503Z,31.45
2023-02-17T02:37:20.854Z,28.55
2023-02-17T02:39:53.014Z,28.27
2023-02-17T02:42:23.986Z,26.90
2023-02-17T02:44:51.668Z,29.13
2023-02-17T02:47:43.738Z,26.70
2023-02-17T02:50:16.960Z,27.48
2023-02-17T02:53:09.811Z,27.33
2023-02-17T02:56:05.921Z,27.33
2023-02-17T02:58:57.715Z,27.10
2023-02-17T03:01:44.646Z,26.92
2023-02-17T03:04:18.825Z,26.67
2023-02-17T03:06:56.386Z,27.67
2023-02-17T03:09:26.876Z,27.60
2023-02-17T03:11:58.262Z,27.30
2023-02-17T03:14:27.487Z,26.85
2023-02-17T03:16:55.359Z,26.27
2023-02-17T03:19:25.240Z,26.80
2023-02-17T03:21:57.698Z,27.08
2023-02-17T03:24:25.166Z,25.92
2023-02-17T03:26:52.379Z,26.02
2023-02-17T03:29:19.562Z,26.25
2023-02-17T03:31:46.858Z,27.07
2023-02-17T03:34:14.179Z,27.20
2023-02-17T03:36:41.322Z,27.35
2023-02-17T03:39:08.491Z,27.92
2023-02-17T03:41:35.698Z,29.65
2023-02-17T03:44:02.925Z,31.03
2023-02-17T03:46:30.091Z,28.52
2023-02-17T03:48:57.278Z,27.00
2023-02-17T03:51:25.140Z,28.52
2023-02-17T03:53:52.898Z,28.70
2023-02-17T03:56:20.326Z,27.63
2023-02-17T03:58:47.812Z,30.40
2023-02-17T04:01:15.489Z,29.63
2023-02-17T04:03:43.057Z,30.45
2023-02-17T04:06:11.152Z,30.77
2023-02-17T04:08:39.624Z,32.43
2023-02-17T04:11:09.148Z,31.20
2023-02-17T04:13:36.815Z,32.55
2023-02-17T04:16:05.526Z,32.30
2023-02-17T04:18:33.211Z,32.20
2023-02-17T04:21:00.486Z,32.00
2023-02-17T04:23:28.038Z,31.02
2023-02-17T04:25:55.178Z,31.08
2023-02-17T04:28:22.762Z,31.30
2023-02-17T04:30:51.331Z,31.85
2023-02-17T04:33:19.136Z,31.00
2023-02-17T04:35:47.916Z,30.48
2023-02-17T04:38:15.477Z,31.70
2023-02-17T04:40:43.038Z,29.35
2023-02-17T04:43:10.307Z,30.35
2023-02-17T04:45:38.044Z,29.70
2023-02-17T04:48:05.314Z,27.65
2023-02-17T04:50:32.523Z,27.90
2023-02-17T04:52:59.772Z,28.48
2023-02-17T04:55:26.924Z,27.20
2023-02-17T04:57:54.169Z,27.90
2023-02-17T05:00:21.498Z,27.52
2023-02-17T05:02:48.830Z,25.58
2023-02-17T05:05:16.439Z,30.58
2023-02-17T05:07:43.643Z,27.02
2023-02-17T05:10:12.182Z,26.50
2023-02-17T05:12:40.101Z,25.02
2023-02-17T05:15:07.948Z,26.25
2023-02-17T05:17:35.686Z,27.40
2023-02-17T05:20:03.080Z,26.80
2023-02-17T05:22:30.232Z,27.67
2023-02-17T05:24:57.402Z,26.17
2023-02-17T05:27:24.881Z,28.27
2023-02-17T05:29:52.178Z,27.75
2023-02-17T05:32:19.369Z,28.00
2023-02-17T05:34:46.505Z,28.57
2023-02-17T05:37:13.709Z,27.95
2023-02-17T05:39:40.900Z,27.27
2023-02-17T05:42:08.176Z,29.67
2023-02-17T05:44:35.315Z,29.83
2023-02-17T05:47:02.436Z,28.43
2023-02-17T05:49:29.673Z,29.95
2023-02-17T05:51:56.887Z,28.70
2023-02-17T05:54:24.086Z,41.03
2023-02-17T05:56:51.269Z,47.78
2023-02-17T05:59:18.513Z,52.70
2023-02-17T06:01:45.728Z,48.53
2023-02-17T06:04:12.866Z,50.05
2023-02-17T06:06:39.980Z,51.03
2023-02-17T06:09:07.147Z,45.28
2023-02-17T06:11:34.378Z,43.80
2023-02-17T06:14:01.549Z,43.92
2023-02-17T06:16:28.868Z,45.50
2023-02-17T06:18:56.147Z,50.40
2023-02-17T06:21:23.568Z,46.83
2023-02-17T06:23:50.697Z,46.60
2023-02-17T06:26:18.654Z,47.40
2023-02-17T06:28:46.156Z,46.40
2023-02-17T06:31:13.451Z,47.90
2023-02-17T06:33:40.641Z,49.53
2023-02-17T06:36:08.504Z,51.20
2023-02-17T06:38:35.982Z,54.72
2023-02-17T06:41:03.364Z,60.95
2023-02-17T06:43:30.655Z,76.95
2023-02-17T06:45:57.836Z,65.43
2023-02-17T06:48:25.033Z,56.03
2023-02-17T06:50:52.373Z,52.67
2023-02-17T06:53:19.474Z,52.10
2023-02-17T06:55:46.648Z,56.90
2023-02-17T06:58:14.349Z,57.70
2023-02-17T07:00:45.031Z,56.67
2023-02-17T07:03:12.233Z,45.88
2023-02-17T07:05:40.236Z,53.88
2023-02-17T07:08:07.580Z,50.60
2023-02-17T07:10:34.978Z,48.08
2023-02-17T07:13:02.173Z,43.77
2023-02-17T07:15:29.457Z,39.75
2023-02-17T07:17:56.684Z,34.92
2023-02-17T07:20:23.842Z,29.02
2023-02-17T07:22:51.284Z,28.35
2023-02-17T07:25:18.539Z,25.50
2023-02-17T07:27:45.738Z,23.23
2023-02-17T07:30:14.949Z,23.30
2023-02-17T07:32:43.252Z,22.42
2023-02-17T07:35:10.549Z,22.45
2023-02-17T07:37:37.792Z,21.93
2023-02-17T07:40:05.797Z,22.55
2023-02-17T07:42:32.976Z,20.58
2023-02-17T07:45:00.095Z,21.17
2023-02-17T07:47:27.253Z,20.77
2023-02-17T07:49:54.358Z,20.40
2023-02-17T07:52:21.591Z,20.75
2023-02-17T07:54:48.782Z,20.77
2023-02-17T07:57:15.952Z,20.33
2023-02-17T07:59:43.131Z,21.48
2023-02-17T08:02:12.505Z,20.87
2023-02-17T08:04:39.750Z,20.10
2023-02-17T08:07:07.145Z,20.08
2023-02-17T08:09:53.048Z,20.55
2023-02-17T08:12:39.951Z,22.15
2023-02-17T08:15:10.278Z,21.47
2023-02-17T08:17:37.645Z,20.83
2023-02-17T08:20:08.937Z,21.70
2023-02-17T08:22:37.438Z,21.10
2023-02-17T08:25:06.263Z,21.70
2023-02-17T08:27:34.010Z,21.93
2023-02-17T08:30:01.280Z,21.10
2023-02-17T08:32:28.658Z,21.33
2023-02-17T08:34:57.092Z,21.17
2023-02-17T08:37:24.955Z,21.27
2023-02-17T08:39:52.125Z,20.70
2023-02-17T08:42:19.881Z,20.63
2023-02-17T08:44:47.435Z,20.80
2023-02-17T08:47:15.273Z,20.70
2023-02-17T08:49:42.403Z,20.50
2023-02-17T08:52:09.705Z,20.83
2023-02-17T08:54:37.764Z,20.13
2023-02-17T08:57:05.675Z,20.05
2023-02-17T08:59:32.892Z,21.42
2023-02-17T09:02:00.285Z,20.75
2023-02-17T09:04:27.684Z,21.00
2023-02-17T09:06:59.132Z,21.20
2023-02-17T09:09:27.692Z,21.17
2023-02-17T09:11:56.711Z,23.13
2023-02-17T09:14:24.527Z,21.45
2023-02-17T09:16:52.643Z,19.85
2023-02-17T09:19:20.324Z,20.83
2023-02-17T09:21:48.491Z,19.42
2023-02-17T09:24:16.853Z,21.38
2023-02-17T09:26:44.468Z,20.95
2023-02-17T09:29:11.900Z,21.20
2023-02-17T09:31:39.225Z,21.50
2023-02-17T09:34:06.640Z,20.77
2023-02-17T09:36:39.704Z,21.75
2023-02-17T09:39:07.096Z,21.98
2023-02-17T09:41:50.128Z,21.30
2023-02-17T09:44:20.744Z,21.90
2023-02-17T09:47:01.803Z,20.48
2023-02-17T09:49:51.121Z,21.80
2023-02-17T09:52:26.182Z,20.88
2023-02-17T09:55:08.265Z,21.70
2023-02-17T09:57:51.414Z,21.10
2023-02-17T10:00:24.745Z,21.80
2023-02-17T10:02:54.984Z,20.92
2023-02-17T10:05:25.715Z,21.63
2023-02-17T10:08:17.897Z,20.48
2023-02-17T10:10:58.861Z,19.37
2023-02-17T10:13:29.790Z,20.33
2023-02-17T10:16:02.985Z,20.02
2023-02-17T10:18:41.590Z,20.27
2023-02-17T10:21:19.513Z,20.15
2023-02-17T10:23:47.686Z,19.33
2023-02-17T10:27:02.965Z,19.85
2023-02-17T10:29:43.148Z,20.35
2023-02-17T10:32:22.302Z,18.17
2023-02-17T10:35:09.762Z,17.20
2023-02-17T10:37:39.551Z,17.20
2023-02-17T10:40:22.590Z,16.50
2023-02-17T10:42:56.693Z,14.18
2023-02-17T10:45:43.390Z,13.95
2023-02-17T10:48:17.830Z,15.05
2023-02-17T10:50:46.905Z,14.33
2023-02-17T10:53:25.132Z,12.88
2023-02-17T10:56:26.009Z,14.20
2023-02-17T10:59:06.347Z,13.63
2023-02-17T11:01:34.545Z,12.85
2023-02-17T11:04:08.652Z,12.83
2023-02-17T11:06:47.183Z,12.70
2023-02-17T11:09:31.955Z,11.63
2023-02-17T11:12:00.450Z,12.02
2023-02-17T11:14:33.272Z,11.52
2023-02-17T11:17:14.973Z,11.90
2023-02-17T11:19:42.129Z,11.45
2023-02-17T11:22:37.234Z,11.10
2023-02-17T11:25:27.734Z,11.02
2023-02-17T11:28:00.129Z,11.52
2023-02-17T11:30:30.200Z,10.33
2023-02-17T11:32:57.418Z,10.45
2023-02-17T11:35:49.267Z,11.05
2023-02-17T11:38:19.647Z,10.25
2023-02-17T11:41:08.638Z,10.27
2023-02-17T11:43:37.300Z,9.90
2023-02-17T11:46:13.697Z,10.55
2023-02-17T11:49:05.573Z,9.77
2023-02-17T11:51:53.827Z,10.50
2023-02-17T11:55:07.886Z,10.02
2023-02-17T11:57:45.258Z,9.13
2023-02-17T12:00:19.260Z,8.85
2023-02-17T12:02:49.404Z,8.63
2023-02-17T12:05:34.085Z,6.93
2023-02-17T12:08:07.240Z,8.75
2023-02-17T12:10:53.051Z,6.40
2023-02-17T12:13:48.150Z,7.70
2023-02-17T12:16:27.187Z,7.57
2023-02-17T12:19:12.365Z,7.22
2023-02-17T12:22:17.675Z,7.55
2023-02-17T12:25:03.108Z,7.50
2023-02-17T12:28:01.258Z,7.75
2023-02-17T12:30:49.898Z,7.55
2023-02-17T12:33:45.789Z,7.32
2023-02-17T12:36:16.326Z,7.93
2023-02-17T12:38:47.794Z,7.53
2023-02-17T12:41:30.799Z,7.70
2023-02-17T12:44:13.158Z,6.85
2023-02-17T12:46:44.289Z,7.38
2023-02-17T12:49:30.154Z,6.60
2023-02-17T12:52:04.289Z,7.40
2023-02-17T12:54:51.066Z,6.68
2023-02-17T12:57:41.244Z,6.40
2023-02-17T13:00:25.130Z,7.55
2023-02-17T13:02:56.912Z,6.57
2023-02-17T13:05:30.913Z,6.00
2023-02-17T13:08:05.981Z,6.70
2023-02-17T13:10:38.991Z,6.72
2023-02-17T13:13:11.787Z,7.45
2023-02-17T13:15:43.102Z,7.03
2023-02-17T13:18:31.403Z,7.60
2023-02-17T13:21:28.853Z,6.60
2023-02-17T13:24:07.508Z,7.88
2023-02-17T13:26:39.751Z,7.28
2023-02-17T13:29:25.185Z,6.75
2023-02-17T13:32:02.260Z,6.60
2023-02-17T13:34:44.806Z,7.28
2023-02-17T13:37:43.491Z,6.53
2023-02-17T13:40:17.241Z,6.25
2023-02-17T13:42:48.273Z,5.93
2023-02-17T13:45:54.376Z,5.83
2023-02-17T13:48:21.550Z,5.72
2023-02-17T13:51:03.376Z,5.05
2023-02-17T13:53:39.281Z,4.97
2023-02-17T13:56:09.862Z,4.03
2023-02-17T13:58:40.254Z,3.57
2023-02-17T14:01:14.296Z,3.85
2023-02-17T14:03:46.699Z,4.00
2023-02-17T14:06:22.186Z,3.22
2023-02-17T14:08:49.560Z,3.78
2023-02-17T14:11:23.321Z,3.57
2023-02-17T14:13:53.812Z,3.33
2023-02-17T14:16:35.884Z,3.80
2023-02-17T14:19:14.908Z,3.15
2023-02-17T14:21:45.136Z,3.22
2023-02-17T14:24:44.745Z,3.20
2023-02-17T14:27:14.249Z,3.03
2023-02-17T14:29:47.866Z,3.67
2023-02-17T14:32:37.840Z,2.97
2023-02-17T14:35:13.983Z,3.20
2023-02-17T14:37:42.441Z,3.40
2023-02-17T14:40:19.986Z,3.38
2023-02-17T14:42:47.682Z,3.72
2023-02-17T14:45:16.632Z,3.40
2023-02-17T14:47:44.416Z,3.60
2023-02-17T14:50:12.559Z,3.20
2023-02-17T14:52:46.098Z,3.22
2023-02-17T14:55:26.535Z,3.80
2023-02-17T14:57:54.443Z,3.80
2023-02-17T15:00:21.914Z,3.67
2023-02-17T15:02:49.132Z,3.10
2023-02-17T15:05:16.280Z,3.30
2023-02-17T15:07:43.537Z,3.30
2023-02-17T15:10:24.843Z,3.10
2023-02-17T15:12:52.401Z,3.20
2023-02-17T15:15:19.825Z,2.90
2023-02-17T15:17:47.071Z,3.35
2023-02-17T15:20:16.144Z,3.08
2023-02-17T15:22:44.367Z,3.45
2023-02-17T15:25:17.915Z,3.38
2023-02-17T15:27:46.175Z,3.40
2023-02-17T15:30:21.814Z,3.95
2023-02-17T15:32:49.179Z,3.50
2023-02-17T15:35:24.815Z,3.50
2023-02-17T15:37:52.308Z,3.30
2023-02-17T15:40:22.071Z,3.93
2023-02-17T15:43:03.536Z,3.22
2023-02-17T15:45:31.032Z,3.17
2023-02-17T15:48:04.132Z,2.72
2023-02-17T15:50:31.548Z,3.35
2023-02-17T15:52:59.028Z,3.37
2023-02-17T15:55:28.263Z,3.08
2023-02-17T15:58:02.158Z,3.38
2023-02-17T16:00:32.671Z,2.92
2023-02-17T16:03:00.005Z,3.65
2023-02-17T16:05:29.600Z,3.40
2023-02-17T16:07:56.869Z,3.88
2023-02-17T16:10:29.392Z,4.20
2023-02-17T16:12:58.667Z,4.07
2023-02-17T16:15:27.412Z,4.18
2023-02-17T16:17:55.714Z,4.20
2023-02-17T16:20:34.607Z,4.07
2023-02-17T16:23:02.906Z,4.15
2023-02-17T16:25:30.292Z,4.05
2023-02-17T16:27:57.608Z,4.10
2023-02-17T16:30:35.359Z,4.73
2023-02-17T16:33:03.804Z,4.60
2023-02-17T16:35:32.453Z,4.32
2023-02-17T16:38:06.930Z,5.38
2023-02-17T16:40:37.142Z,5.55
2023-02-17T16:43:04.534Z,7.10
2023-02-17T16:45:33.873Z,7.28
2023-02-17T16:48:01.932Z,7.57
2023-02-17T16:50:32.880Z,7.28
2023-02-17T16:53:06.163Z,6.95
2023-02-17T16:55:35.570Z,7.20
2023-02-17T16:58:03.742Z,7.20
2023-02-17T17:00:33.040Z,8.30
2023-02-17T17:03:00.210Z,8.70
2023-02-17T17:05:29.312Z,10.20
2023-02-17T17:07:57.081Z,9.80
2023-02-17T17:10:27.444Z,10.38
2023-02-17T17:12:55.098Z,9.40
2023-02-17T17:15:22.759Z,9.48
2023-02-17T17:18:00.584Z,8.77
2023-02-17T17:20:32.142Z,8.30
2023-02-17T17:23:01.482Z,8.63
2023-02-17T17:25:29.224Z,9.00
2023-02-17T17:27:57.398Z,8.35
2023-02-17T17:30:28.000Z,8.20
2023-02-17T17:32:55.302Z,8.00
2023-02-17T17:35:23.107Z,8.15
2023-02-17T17:37:50.681Z,7.15
2023-02-17T17:40:21.542Z,7.15
2023-02-17T17:42:49.078Z,6.53
2023-02-17T17:45:16.420Z,7.23
2023-02-17T17:47:44.168Z,7.38
2023-02-17T17:50:17.929Z,7.22
2023-02-17T17:52:46.031Z,6.97
2023-02-17T17:55:13.410Z,7.45
2023-02-17T17:57:41.530Z,7.60
2023-02-17T18:00:13.079Z,8.10
2023-02-17T18:02:43.601Z,7.70
2023-02-17T18:05:10.880Z,7.70
2023-02-17T18:07:38.615Z,7.82
2023-02-17T18:10:07.974Z,8.00
2023-02-17T18:12:35.644Z,7.65
2023-02-17T18:15:04.430Z,8.35
2023-02-17T18:17:38.893Z,8.48
2023-02-17T18:20:10.890Z,8.27
2023-02-17T18:22:38.504Z,8.13
2023-02-17T18:25:06.339Z,8.85
2023-02-17T18:27:51.753Z,8.13
2023-02-17T18:30:21.382Z,9.25
2023-02-17T18:32:48.587Z,9.10
2023-02-17T18:35:16.693Z,9.23
2023-02-17T18:37:45.140Z,8.93
2023-02-17T18:40:15.391Z,9.15
2023-02-17T18:42:45.491Z,9.27
2023-02-17T18:45:13.489Z,10.50
2023-02-17T18:47:40.748Z,10.13
2023-02-17T18:50:08.920Z,10.45
2023-02-17T18:52:38.327Z,9.27
2023-02-17T18:55:06.261Z,9.27
2023-02-17T18:57:34.130Z,9.98
2023-02-17T19:00:01.420Z,9.30
2023-02-17T19:02:28.699Z,9.98
2023-02-17T19:04:56.436Z,10.00
2023-02-17T19:07:23.620Z,9.70
2023-02-17T19:09:54.560Z,9.27
2023-02-17T19:12:22.194Z,8.43
2023-02-17T19:14:53.286Z,8.75
2023-02-17T19:17:23.411Z,8.77
2023-02-17T19:19:50.956Z,8.48
2023-02-17T19:22:18.718Z,8.10
2023-02-17T19:24:51.710Z,8.17
2023-02-17T19:27:19.450Z,8.02
2023-02-17T19:29:46.673Z,8.55
2023-02-17T19:32:13.910Z,8.48
2023-02-17T19:34:41.167Z,8.48
2023-02-17T19:37:08.412Z,7.77
2023-02-17T19:39:36.132Z,8.85
2023-02-17T19:42:04.446Z,7.80
2023-02-17T19:44:32.108Z,7.82
2023-02-17T19:47:02.019Z,7.90
2023-02-17T19:49:29.199Z,7.57
2023-02-17T19:51:56.342Z,8.52
2023-02-17T19:54:24.354Z,7.30
2023-02-17T19:56:52.067Z,7.65
2023-02-17T19:59:19.638Z,7.03
2023-02-17T20:01:47.046Z,7.40
2023-02-17T20:04:14.350Z,6.20
2023-02-17T20:06:44.569Z,5.72
2023-02-17T20:09:16.402Z,6.68
2023-02-17T20:11:45.040Z,5.75
2023-02-17T20:14:12.347Z,4.97
2023-02-17T20:16:40.036Z,4.50
2023-02-17T20:19:07.936Z,4.80
2023-02-17T20:21:38.501Z,4.22
2023-02-17T20:24:06.208Z,3.83
2023-02-17T20:26:39.670Z,3.93
2023-02-17T20:29:07.402Z,4.20
2023-02-17T20:31:36.803Z,3.47
2023-02-17T20:34:06.076Z,4.18
2023-02-17T20:36:33.848Z,3.75
2023-02-17T20:39:01.717Z,3.73
2023-02-17T20:41:29.162Z,3.78
2023-02-17T20:43:58.490Z,4.28
2023-02-17T20:46:27.355Z,4.38
2023-02-17T20:48:55.279Z,4.85
2023-02-17T20:51:23.159Z,4.60
2023-02-17T20:53:53.094Z,4.40
2023-02-17T20:56:22.397Z,4.53
2023-02-17T20:58:51.880Z,5.00
2023-02-17T21:01:19.949Z,4.30
2023-02-17T21:03:47.320Z,4.20
2023-02-17T21:06:32.935Z,4.97
2023-02-17T21:09:05.002Z,4.93
2023-02-17T21:11:36.584Z,4.78
2023-02-17T21:14:04.053Z,5.45
2023-02-17T21:16:31.719Z,4.73
2023-02-17T21:18:59.902Z,5.25
2023-02-17T21:21:27.954Z,5.18
2023-02-17T21:23:59.426Z,6.70
2023-02-17T21:26:27.520Z,5.57
2023-02-17T21:28:55.051Z,5.40
2023-02-17T21:31:22.287Z,5.15
2023-02-17T21:33:49.544Z,5.70
2023-02-17T21:36:18.263Z,6.28
2023-02-17T21:38:46.470Z,5.97
2023-02-17T21:41:19.620Z,5.60
2023-02-17T21:44:05.358Z,6.15
2023-02-17T21:46:33.158Z,5.82
2023-02-17T21:49:01.535Z,6.95
2023-02-17T21:51:29.061Z,6.03
2023-02-17T21:53:56.362Z,5.73
2023-02-17T21:56:23.944Z,6.55
2023-02-17T21:58:53.479Z,6.43
2023-02-17T22:01:22.805Z,7.03
2023-02-17T22:03:50.300Z,6.22
2023-02-17T22:06:19.188Z,7.10
2023-02-17T22:08:47.061Z,6.45
2023-02-17T22:11:26.458Z,7.32
2023-02-17T22:13:58.206Z,7.13
2023-02-17T22:16:25.954Z,7.07
2023-02-17T22:18:53.127Z,7.20
2023-02-17T22:21:20.436Z,7.38
2023-02-17T22:23:47.841Z,7.97
2023-02-17T22:26:18.554Z,8.00
2023-02-17T22:28:46.390Z,8.77
2023-02-17T22:31:15.781Z,8.93
2023-02-17T22:33:43.371Z,9.23
2023-02-17T22:36:13.382Z,9.35
2023-02-17T22:38:40.788Z,8.93
2023-02-17T22:41:10.383Z,9.35
2023-02-17T22:43:39.446Z,8.90
2023-02-17T22:46:09.068Z,8.35
2023-02-17T22:48:38.550Z,8.52
2023-02-17T22:51:09.862Z,9.13
2023-02-17T22:53:37.776Z,8.80
2023-02-17T22:56:06.010Z,8.60
2023-02-17T22:58:34.862Z,8.48
2023-02-17T23:01:12.394Z,8.80
2023-02-17T23:03:40.435Z,9.65
2023-02-17T23:06:15.897Z,9.35
2023-02-17T23:08:43.341Z,9.20
2023-02-17T23:11:13.418Z,9.48
2023-02-17T23:13:40.842Z,9.25
2023-02-17T23:16:09.176Z,9.68
2023-02-17T23:18:37.119Z,9.88
2023-02-17T23:21:09.871Z,8.60
2023-02-17T23:23:37.131Z,10.38
2023-02-17T23:26:05.958Z,10.32
2023-02-17T23:28:33.549Z,10.55
2023-02-17T23:31:00.790Z,10.40
2023-02-17T23:33:27.990Z,10.87
2023-02-17T23:35:55.189Z,10.60
2023-02-17T23:38:22.441Z,10.82
2023-02-17T23:40:51.267Z,11.55
2023-02-17T23:43:19.352Z,11.75
2023-02-17T23:45:46.483Z,12.00
2023-02-17T23:48:14.240Z,10.63
2023-02-17T23:50:41.754Z,11.95
2023-02-17T23:53:09.275Z,11.93
2023-02-17T23:55:36.426Z,11.60
2023-02-17T23:58:03.939Z,12.27
